createdAt,value
2022-08-22T00:02:42.244Z,2.35
2022-08-22T00:02:44.477Z,2.47
2022-08-22T00:02:48.773Z,2.00
2022-08-22T00:03:02.383Z,2.30
2022-08-22T00:03:15.702Z,3.70
2022-08-22T00:08:24.113Z,3.25
2022-08-22T00:13:35.448Z,3.08
2022-08-22T00:18:47.732Z,3.20
2022-08-22T00:23:58.956Z,2.92
2022-08-22T00:29:09.879Z,2.35
2022-08-22T00:34:27.189Z,3.70
2022-08-22T00:39:37.884Z,4.30
2022-08-22T00:45:15.497Z,3.40
2022-08-22T00:50:44.469Z,4.22
2022-08-22T00:56:05.602Z,2.85
2022-08-22T01:01:13.807Z,2.95
2022-08-22T01:06:26.939Z,3.38
2022-08-22T01:11:56.926Z,2.88
2022-08-22T01:17:29.333Z,3.25
2022-08-22T01:23:09.273Z,3.05
2022-08-22T01:28:53.775Z,3.35
2022-08-22T01:34:29.582Z,3.65
2022-08-22T01:39:58.105Z,3.50
2022-08-22T01:45:39.160Z,3.90
2022-08-22T01:50:49.781Z,4.10
2022-08-22T01:56:04.875Z,3.45
2022-08-22T02:01:21.168Z,3.70
2022-08-22T02:06:37.849Z,3.42
2022-08-22T02:11:52.687Z,3.40
2022-08-22T02:17:01.347Z,3.35
2022-08-22T02:22:21.934Z,3.53
2022-08-22T02:27:35.264Z,3.67
2022-08-22T02:32:52.945Z,3.35
2022-08-22T02:38:08.876Z,3.30
2022-08-22T02:43:19.213Z,3.38
2022-08-22T02:48:35.937Z,3.70
2022-08-22T02:53:52.905Z,3.70
2022-08-22T02:59:02.278Z,3.95
2022-08-22T03:04:24.429Z,3.17
2022-08-22T03:09:34.282Z,3.33
2022-08-22T03:14:45.042Z,3.75
2022-08-22T03:19:57.539Z,3.67
2022-08-22T03:25:11.918Z,3.22
2022-08-22T03:30:20.351Z,3.58
2022-08-22T03:35:32.676Z,3.30
2022-08-22T03:40:51.404Z,3.85
2022-08-22T03:51:28.296Z,3.80
2022-08-22T03:57:11.767Z,3.35
2022-08-22T04:02:42.996Z,3.83
2022-08-22T04:08:26.127Z,3.90
2022-08-22T04:13:53.127Z,3.90
2022-08-22T04:19:25.715Z,3.90
2022-08-22T04:24:43.334Z,3.92
2022-08-22T04:30:00.864Z,4.15
2022-08-22T04:35:11.496Z,4.38
2022-08-22T04:40:22.209Z,4.80
2022-08-22T04:45:33.965Z,4.18
2022-08-22T04:50:43.477Z,3.90
2022-08-22T04:55:58.709Z,4.60
2022-08-22T05:01:15.049Z,5.10
2022-08-22T05:06:22.668Z,3.88
2022-08-22T05:11:29.064Z,4.03
2022-08-22T05:16:38.942Z,4.45
2022-08-22T05:21:45.403Z,4.93
2022-08-22T05:26:54.892Z,5.05
2022-08-22T05:32:05.944Z,4.20
2022-08-22T05:37:16.229Z,5.20
2022-08-22T05:42:27.280Z,4.82
2022-08-22T05:47:38.413Z,4.20
2022-08-22T05:52:58.176Z,4.40
2022-08-22T05:58:21.539Z,4.72
2022-08-22T06:03:32.351Z,4.97
2022-08-22T06:08:40.583Z,4.97
2022-08-22T06:13:50.421Z,4.07
2022-08-22T06:19:00.096Z,4.80
2022-08-22T06:24:08.897Z,4.63
2022-08-22T06:34:27.047Z,5.13
2022-08-22T06:39:36.483Z,4.40
2022-08-22T06:44:45.362Z,5.63
2022-08-22T06:49:53.841Z,6.18
2022-08-22T06:55:02.031Z,6.57
2022-08-22T07:00:14.253Z,7.50
2022-08-22T07:05:24.185Z,6.53
2022-08-22T07:10:29.965Z,5.80
2022-08-22T07:15:38.585Z,6.65
2022-08-22T07:25:56.414Z,7.45
2022-08-22T07:31:06.819Z,5.43
2022-08-22T07:36:31.496Z,6.70
2022-08-22T07:41:49.268Z,5.53
2022-08-22T07:47:00.088Z,5.88
2022-08-22T07:52:10.303Z,5.95
2022-08-22T07:57:18.665Z,5.70
2022-08-22T08:02:25.879Z,5.20
2022-08-22T08:07:33.925Z,4.72
2022-08-22T08:12:41.963Z,4.00
2022-08-22T08:17:50.320Z,4.33
2022-08-22T08:22:58.397Z,4.68
2022-08-22T08:28:21.556Z,4.57
2022-08-22T08:33:29.798Z,4.82
2022-08-22T08:38:41.207Z,5.68
2022-08-22T08:43:51.272Z,4.45
2022-08-22T08:49:12.153Z,5.18
2022-08-22T08:54:44.488Z,4.80
2022-08-22T09:00:01.165Z,5.55
2022-08-22T09:05:56.022Z,5.38
2022-08-22T09:11:49.236Z,5.03
2022-08-22T09:17:17.273Z,5.00
2022-08-22T09:22:50.672Z,4.93
2022-08-22T09:28:02.865Z,4.60
2022-08-22T09:33:14.840Z,4.78
2022-08-22T09:40:16.053Z,5.32
2022-08-22T09:44:19.736Z,5.53
2022-08-22T09:49:33.112Z,5.18
2022-08-22T09:54:44.385Z,4.60
2022-08-22T10:00:23.036Z,4.18
2022-08-22T10:05:40.835Z,4.65
2022-08-22T10:11:06.676Z,4.20
2022-08-22T10:16:26.438Z,4.03
2022-08-22T10:21:36.783Z,3.72
2022-08-22T10:26:47.813Z,3.88
2022-08-22T10:32:01.362Z,4.30
2022-08-22T10:37:17.443Z,4.53
2022-08-22T10:42:35.419Z,4.85
2022-08-22T10:48:01.771Z,3.92
2022-08-22T10:53:31.654Z,3.78
2022-08-22T10:58:44.085Z,4.18
2022-08-22T11:03:56.928Z,4.00
2022-08-22T11:09:14.894Z,3.80
2022-08-22T11:14:58.986Z,3.60
2022-08-22T11:20:16.459Z,4.03
2022-08-22T11:25:52.314Z,4.03
2022-08-22T11:31:07.179Z,3.70
2022-08-22T11:36:30.828Z,4.20
2022-08-22T11:41:41.713Z,4.18
2022-08-22T11:46:49.054Z,4.75
2022-08-22T11:52:08.539Z,4.28
2022-08-22T11:57:19.251Z,4.70
2022-08-22T12:02:31.418Z,3.90
2022-08-22T12:07:41.509Z,3.83
2022-08-22T12:12:56.526Z,6.30
2022-08-22T12:18:28.340Z,6.07
2022-08-22T12:24:06.255Z,4.38
2022-08-22T12:29:34.001Z,3.50
2022-08-22T12:34:52.642Z,4.45
2022-08-22T12:40:26.103Z,3.58
2022-08-22T12:45:55.918Z,4.38
2022-08-22T12:51:17.643Z,4.22
2022-08-22T12:56:34.414Z,3.40
2022-08-22T13:01:44.542Z,3.70
2022-08-22T13:07:09.632Z,3.45
2022-08-22T13:12:26.321Z,3.60
2022-08-22T13:17:35.947Z,3.28
2022-08-22T13:22:45.706Z,3.17
2022-08-22T13:27:55.607Z,4.43
2022-08-22T13:33:09.942Z,4.50
2022-08-22T13:38:25.971Z,4.03
2022-08-22T13:43:37.004Z,5.18
2022-08-22T13:48:51.614Z,4.22
2022-08-22T13:54:11.156Z,4.65
2022-08-22T13:59:49.682Z,3.90
2022-08-22T14:04:54.127Z,4.30
2022-08-22T14:10:24.369Z,3.35
2022-08-22T14:15:45.532Z,3.28
2022-08-22T14:20:51.786Z,3.97
2022-08-22T14:25:58.020Z,3.85
2022-08-22T14:31:13.329Z,4.93
2022-08-22T14:36:22.528Z,3.80
2022-08-22T14:41:52.456Z,3.33
2022-08-22T14:47:03.817Z,3.05
2022-08-22T14:52:19.758Z,4.28
2022-08-22T14:57:26.320Z,3.03
2022-08-22T15:02:34.718Z,3.38
2022-08-22T15:07:41.403Z,2.80
2022-08-22T15:12:50.365Z,3.83
2022-08-22T15:17:57.911Z,3.03
2022-08-22T15:23:09.882Z,3.03
2022-08-22T15:28:21.194Z,2.55
2022-08-22T15:33:31.296Z,2.90
2022-08-22T15:38:39.081Z,2.85
2022-08-22T15:43:50.566Z,3.00
2022-08-22T15:49:00.879Z,2.63
2022-08-22T15:54:16.363Z,2.92
2022-08-22T15:59:54.250Z,3.55
2022-08-22T16:05:23.602Z,3.05
2022-08-22T16:10:33.285Z,3.53
2022-08-22T16:16:00.958Z,2.90
2022-08-22T16:21:09.264Z,3.93
2022-08-22T16:26:17.141Z,2.85
2022-08-22T16:31:31.379Z,3.15
2022-08-22T16:36:51.138Z,3.15
2022-08-22T16:41:59.051Z,2.97
2022-08-22T16:47:14.824Z,2.97
2022-08-22T16:53:04.031Z,3.33
2022-08-22T16:58:17.668Z,3.13
2022-08-22T17:03:32.120Z,4.13
2022-08-22T17:08:48.645Z,4.22
2022-08-22T17:14:07.656Z,2.80
2022-08-22T17:19:30.427Z,2.60
2022-08-22T17:24:40.739Z,3.30
2022-08-22T17:30:01.227Z,3.75
2022-08-22T17:35:18.731Z,4.10
2022-08-22T17:40:36.913Z,3.70
2022-08-22T17:45:54.505Z,4.78
2022-08-22T17:51:02.887Z,3.50
2022-08-22T18:01:41.670Z,3.30
2022-08-22T18:06:56.267Z,4.15
2022-08-22T18:12:07.346Z,3.30
2022-08-22T18:17:21.100Z,4.05
2022-08-22T18:22:32.221Z,3.55
2022-08-22T18:27:41.763Z,3.30
2022-08-22T18:32:56.149Z,3.58
2022-08-22T18:38:19.152Z,2.85
2022-08-22T18:43:38.273Z,3.08
2022-08-22T18:49:12.024Z,3.35
2022-08-22T18:54:35.130Z,5.85
2022-08-22T18:59:57.907Z,3.78
2022-08-22T19:05:20.277Z,3.78
2022-08-22T19:10:43.108Z,5.07
2022-08-22T19:16:00.153Z,4.35
2022-08-22T19:21:39.132Z,3.35
2022-08-22T19:26:48.455Z,4.13
2022-08-22T19:31:56.809Z,3.97
2022-08-22T19:42:40.479Z,4.15
2022-08-22T19:47:56.568Z,3.60
2022-08-22T19:53:21.159Z,3.97
2022-08-22T19:58:37.003Z,3.60
2022-08-22T20:03:49.681Z,3.72
2022-08-22T20:09:05.608Z,3.65
2022-08-22T20:14:25.017Z,4.20
2022-08-22T20:20:16.571Z,3.85
2022-08-22T20:25:42.442Z,3.80
2022-08-22T20:30:46.466Z,4.07
2022-08-22T20:35:55.709Z,3.83
2022-08-22T20:41:11.109Z,4.15
2022-08-22T20:46:27.686Z,3.40
2022-08-22T20:51:35.151Z,3.55
2022-08-22T20:56:53.294Z,3.63
2022-08-22T21:02:11.491Z,3.55
2022-08-22T21:07:23.966Z,3.97
2022-08-22T21:12:30.058Z,3.50
2022-08-22T21:17:39.375Z,3.40
2022-08-22T21:22:45.586Z,3.60
2022-08-22T21:27:53.739Z,4.30
2022-08-22T21:33:01.135Z,5.47
2022-08-22T21:38:07.801Z,6.10
2022-08-22T21:43:15.539Z,4.50
2022-08-22T21:48:41.631Z,4.73
2022-08-22T21:53:47.291Z,4.80
2022-08-22T21:59:20.919Z,4.05
2022-08-22T22:04:32.011Z,4.65
2022-08-22T22:09:38.363Z,3.85
2022-08-22T22:14:46.272Z,4.10
2022-08-22T22:19:53.648Z,4.67
2022-08-22T22:24:59.415Z,4.28
2022-08-22T22:30:06.943Z,4.53
2022-08-22T22:35:14.523Z,4.22
2022-08-22T22:40:20.220Z,4.07
2022-08-22T22:45:25.817Z,3.95
2022-08-22T22:50:33.874Z,3.70
2022-08-22T22:55:41.610Z,3.88
2022-08-22T23:00:47.825Z,4.88
2022-08-22T23:05:54.869Z,5.60
2022-08-22T23:11:00.696Z,4.43
2022-08-22T23:16:09.385Z,4.20
2022-08-22T23:21:24.770Z,5.95
2022-08-22T23:26:30.916Z,4.70
2022-08-22T23:31:38.567Z,4.65
2022-08-22T23:36:48.003Z,4.43
2022-08-22T23:41:53.922Z,4.57
2022-08-22T23:47:00.820Z,5.55
2022-08-22T23:52:08.727Z,3.67
2022-08-22T23:57:14.447Z,4.10
